sensor_id;sensor_type;location;lat;lon;timestamp;P1;durP1;ratioP1;P2;durP2;ratioP2
1593;SDS011;790;47.000;16.084;2022-09-13T00:08:06;5.17;;;3.77;;
1593;SDS011;790;47.000;16.084;2022-09-13T00:14:14;3.27;;;3.03;;
1593;SDS011;790;47.000;16.084;2022-09-13T00:20:22;3.63;;;3.33;;
1593;SDS011;790;47.000;16.084;2022-09-13T00:26:32;4.13;;;3.50;;
1593;SDS011;790;47.000;16.084;2022-09-13T00:32:40;3.53;;;3.23;;
1593;SDS011;790;47.000;16.084;2022-09-13T00:38:48;7.00;;;3.30;;
1593;SDS011;790;47.000;16.084;2022-09-13T00:44:57;3.77;;;3.50;;
1593;SDS011;790;47.000;16.084;2022-09-13T00:51:07;5.30;;;3.70;;
1593;SDS011;790;47.000;16.084;2022-09-13T00:57:16;4.67;;;4.17;;
1593;SDS011;790;47.000;16.084;2022-09-13T01:07:43;4.03;;;3.63;;
1593;SDS011;790;47.000;16.084;2022-09-13T01:14:15;3.80;;;3.60;;
1593;SDS011;790;47.000;16.084;2022-09-13T01:20:51;4.20;;;3.50;;
1593;SDS011;790;47.000;16.084;2022-09-13T01:27:35;3.53;;;3.33;;
1593;SDS011;790;47.000;16.084;2022-09-13T01:34:08;3.73;;;3.40;;
1593;SDS011;790;47.000;16.084;2022-09-13T01:40:43;4.13;;;3.67;;
1593;SDS011;790;47.000;16.084;2022-09-13T01:47:16;6.53;;;3.70;;
1593;SDS011;790;47.000;16.084;2022-09-13T01:53:47;4.37;;;3.33;;
1593;SDS011;790;47.000;16.084;2022-09-13T02:00:17;3.50;;;3.30;;
1593;SDS011;790;47.000;16.084;2022-09-13T02:11:34;3.37;;;3.10;;
1593;SDS011;790;47.000;16.084;2022-09-13T02:17:45;4.20;;;3.90;;
1593;SDS011;790;47.000;16.084;2022-09-13T02:23:57;4.63;;;4.23;;
1593;SDS011;790;47.000;16.084;2022-09-13T02:30:10;5.90;;;3.37;;
1593;SDS011;790;47.000;16.084;2022-09-13T02:36:21;3.80;;;3.40;;
1593;SDS011;790;47.000;16.084;2022-09-13T02:42:33;3.67;;;3.47;;
1593;SDS011;790;47.000;16.084;2022-09-13T02:48:51;3.83;;;3.53;;
1593;SDS011;790;47.000;16.084;2022-09-13T02:55:07;4.13;;;3.67;;
1593;SDS011;790;47.000;16.084;2022-09-13T03:01:22;3.90;;;3.70;;
1593;SDS011;790;47.000;16.084;2022-09-13T03:12:01;4.03;;;3.73;;
1593;SDS011;790;47.000;16.084;2022-09-13T03:18:43;4.30;;;3.87;;
1593;SDS011;790;47.000;16.084;2022-09-13T03:25:14;6.20;;;3.80;;
1593;SDS011;790;47.000;16.084;2022-09-13T03:31:49;4.77;;;3.67;;
1593;SDS011;790;47.000;16.084;2022-09-13T03:38:20;6.13;;;3.60;;
1593;SDS011;790;47.000;16.084;2022-09-13T03:44:46;3.57;;;3.33;;
1593;SDS011;790;47.000;16.084;2022-09-13T03:51:11;4.00;;;3.60;;
1593;SDS011;790;47.000;16.084;2022-09-13T03:57:34;4.20;;;3.70;;
1593;SDS011;790;47.000;16.084;2022-09-13T04:03:56;4.30;;;3.90;;
1593;SDS011;790;47.000;16.084;2022-09-13T04:15:13;3.73;;;3.40;;
1593;SDS011;790;47.000;16.084;2022-09-13T04:21:21;4.47;;;3.50;;
1593;SDS011;790;47.000;16.084;2022-09-13T04:27:30;4.00;;;3.80;;
1593;SDS011;790;47.000;16.084;2022-09-13T04:33:39;3.60;;;3.40;;
1593;SDS011;790;47.000;16.084;2022-09-13T04:39:47;4.03;;;3.77;;
1593;SDS011;790;47.000;16.084;2022-09-13T04:45:58;4.63;;;4.27;;
1593;SDS011;790;47.000;16.084;2022-09-13T04:52:09;5.87;;;3.70;;
1593;SDS011;790;47.000;16.084;2022-09-13T04:58:16;4.53;;;4.17;;
1593;SDS011;790;47.000;16.084;2022-09-13T05:04:25;4.97;;;4.07;;
1593;SDS011;790;47.000;16.084;2022-09-13T05:14:59;4.17;;;3.87;;
1593;SDS011;790;47.000;16.084;2022-09-13T05:21:21;4.63;;;4.23;;
1593;SDS011;790;47.000;16.084;2022-09-13T05:27:44;4.23;;;3.90;;
1593;SDS011;790;47.000;16.084;2022-09-13T05:34:08;5.10;;;3.97;;
1593;SDS011;790;47.000;16.084;2022-09-13T05:40:31;5.00;;;4.60;;
1593;SDS011;790;47.000;16.084;2022-09-13T05:46:52;6.50;;;6.00;;
1593;SDS011;790;47.000;16.084;2022-09-13T05:53:14;6.67;;;6.17;;
1593;SDS011;790;47.000;16.084;2022-09-13T05:59:36;6.00;;;5.50;;
1593;SDS011;790;47.000;16.084;2022-09-13T06:05:58;6.73;;;6.13;;
1593;SDS011;790;47.000;16.084;2022-09-13T06:16:46;6.27;;;5.77;;
1593;SDS011;790;47.000;16.084;2022-09-13T06:23:23;6.73;;;5.97;;
1593;SDS011;790;47.000;16.084;2022-09-13T06:29:31;5.87;;;5.37;;
1593;SDS011;790;47.000;16.084;2022-09-13T06:35:41;6.37;;;5.87;;
1593;SDS011;790;47.000;16.084;2022-09-13T06:41:48;6.07;;;5.57;;
1593;SDS011;790;47.000;16.084;2022-09-13T06:47:56;6.73;;;5.90;;
1593;SDS011;790;47.000;16.084;2022-09-13T06:54:06;6.03;;;5.53;;
1593;SDS011;790;47.000;16.084;2022-09-13T07:00:14;6.43;;;5.90;;
1593;SDS011;790;47.000;16.084;2022-09-13T07:06:23;7.10;;;6.00;;
1593;SDS011;790;47.000;16.084;2022-09-13T07:16:58;7.00;;;6.33;;
1593;SDS011;790;47.000;16.084;2022-09-13T07:23:20;6.20;;;5.70;;
1593;SDS011;790;47.000;16.084;2022-09-13T07:29:41;6.60;;;6.10;;
1593;SDS011;790;47.000;16.084;2022-09-13T07:36:04;6.57;;;5.80;;
1593;SDS011;790;47.000;16.084;2022-09-13T07:42:26;6.37;;;5.77;;
1593;SDS011;790;47.000;16.084;2022-09-13T07:48:47;6.20;;;5.60;;
1593;SDS011;790;47.000;16.084;2022-09-13T07:55:09;5.80;;;5.33;;
1593;SDS011;790;47.000;16.084;2022-09-13T08:01:33;5.03;;;4.73;;
1593;SDS011;790;47.000;16.084;2022-09-13T08:07:55;5.80;;;5.27;;
1593;SDS011;790;47.000;16.084;2022-09-13T08:18:43;5.73;;;4.33;;
1593;SDS011;790;47.000;16.084;2022-09-13T08:24:51;4.20;;;4.00;;
1593;SDS011;790;47.000;16.084;2022-09-13T08:31:03;5.05;;;4.38;;
1593;SDS011;790;47.000;16.084;2022-09-13T08:37:14;4.73;;;4.30;;
1593;SDS011;790;47.000;16.084;2022-09-13T08:43:25;4.57;;;4.18;;
1593;SDS011;790;47.000;16.084;2022-09-13T08:49:45;4.30;;;4.00;;
1593;SDS011;790;47.000;16.084;2022-09-13T08:55:59;4.88;;;3.70;;
1593;SDS011;790;47.000;16.084;2022-09-13T09:02:16;3.60;;;3.30;;
1593;SDS011;790;47.000;16.084;2022-09-13T09:08:31;3.72;;;3.53;;
1593;SDS011;790;47.000;16.084;2022-09-13T09:19:14;3.63;;;3.33;;
1593;SDS011;790;47.000;16.084;2022-09-13T09:25:41;3.15;;;3.00;;
1593;SDS011;790;47.000;16.084;2022-09-13T09:32:07;3.88;;;3.47;;
1593;SDS011;790;47.000;16.084;2022-09-13T09:38:42;3.78;;;3.47;;
1593;SDS011;790;47.000;16.084;2022-09-13T09:45:05;4.50;;;3.85;;
1593;SDS011;790;47.000;16.084;2022-09-13T09:51:44;3.53;;;3.33;;
1593;SDS011;790;47.000;16.084;2022-09-13T09:58:06;3.65;;;3.35;;
1593;SDS011;790;47.000;16.084;2022-09-13T10:04:30;3.15;;;2.88;;
1593;SDS011;790;47.000;16.084;2022-09-13T10:10:52;3.35;;;3.08;;
1593;SDS011;790;47.000;16.084;2022-09-13T10:22:13;2.75;;;2.65;;
1593;SDS011;790;47.000;16.084;2022-09-13T10:28:21;2.67;;;2.50;;
1593;SDS011;790;47.000;16.084;2022-09-13T10:34:31;3.03;;;2.83;;
1593;SDS011;790;47.000;16.084;2022-09-13T10:40:44;2.50;;;2.40;;
1593;SDS011;790;47.000;16.084;2022-09-13T10:46:54;2.53;;;2.42;;
1593;SDS011;790;47.000;16.084;2022-09-13T10:53:03;3.65;;;2.20;;
1593;SDS011;790;47.000;16.084;2022-09-13T10:59:32;2.25;;;2.10;;
1593;SDS011;790;47.000;16.084;2022-09-13T11:05:43;2.00;;;1.90;;
1593;SDS011;790;47.000;16.084;2022-09-13T11:11:58;2.30;;;2.20;;
1593;SDS011;790;47.000;16.084;2022-09-13T11:22:44;2.80;;;2.60;;
1593;SDS011;790;47.000;16.084;2022-09-13T11:29:25;2.38;;;2.28;;
1593;SDS011;790;47.000;16.084;2022-09-13T11:36:03;2.40;;;2.20;;
1593;SDS011;790;47.000;16.084;2022-09-13T11:42:38;4.35;;;3.95;;
1593;SDS011;790;47.000;16.084;2022-09-13T11:49:18;2.35;;;2.15;;
1593;SDS011;790;47.000;16.084;2022-09-13T11:56:15;2.22;;;2.10;;
1593;SDS011;790;47.000;16.084;2022-09-13T12:02:45;1.95;;;1.85;;
1593;SDS011;790;47.000;16.084;2022-09-13T12:09:14;1.70;;;1.60;;
1593;SDS011;790;47.000;16.084;2022-09-13T12:15:40;2.53;;;2.33;;
1593;SDS011;790;47.000;16.084;2022-09-13T12:22:14;3.13;;;2.03;;
1593;SDS011;790;47.000;16.084;2022-09-13T12:28:38;2.20;;;2.00;;
1593;SDS011;790;47.000;16.084;2022-09-13T12:35:04;3.15;;;2.20;;
1593;SDS011;790;47.000;16.084;2022-09-13T12:41:33;2.30;;;2.15;;
1593;SDS011;790;47.000;16.084;2022-09-13T12:48:12;2.00;;;1.90;;
1593;SDS011;790;47.000;16.084;2022-09-13T12:55:02;2.17;;;2.08;;
1593;SDS011;790;47.000;16.084;2022-09-13T13:01:47;3.05;;;2.40;;
1593;SDS011;790;47.000;16.084;2022-09-13T13:14:50;2.25;;;2.15;;
1593;SDS011;790;47.000;16.084;2022-09-13T13:26:09;3.78;;;2.40;;
1593;SDS011;790;47.000;16.084;2022-09-13T13:32:19;2.05;;;1.95;;
1593;SDS011;790;47.000;16.084;2022-09-13T13:38:38;3.92;;;1.95;;
1593;SDS011;790;47.000;16.084;2022-09-13T13:44:57;2.67;;;1.90;;
1593;SDS011;790;47.000;16.084;2022-09-13T13:51:23;2.40;;;2.30;;
1593;SDS011;790;47.000;16.084;2022-09-13T13:57:32;2.20;;;2.10;;
1593;SDS011;790;47.000;16.084;2022-09-13T14:10:35;2.20;;;2.00;;
1593;SDS011;790;47.000;16.084;2022-09-13T14:16:53;2.35;;;2.25;;
1593;SDS011;790;47.000;16.084;2022-09-13T14:28:22;2.30;;;2.20;;
1593;SDS011;790;47.000;16.084;2022-09-13T14:34:52;7.47;;;2.65;;
1593;SDS011;790;47.000;16.084;2022-09-13T14:41:17;2.20;;;2.10;;
1593;SDS011;790;47.000;16.084;2022-09-13T14:47:42;2.80;;;2.60;;
1593;SDS011;790;47.000;16.084;2022-09-13T14:54:10;4.10;;;2.55;;
1593;SDS011;790;47.000;16.084;2022-09-13T15:00:44;2.28;;;2.17;;
1593;SDS011;790;47.000;16.084;2022-09-13T15:07:26;2.25;;;2.03;;
1593;SDS011;790;47.000;16.084;2022-09-13T15:13:59;2.30;;;2.20;;
1593;SDS011;790;47.000;16.084;2022-09-13T15:20:46;2.30;;;2.10;;
1593;SDS011;790;47.000;16.084;2022-09-13T15:27:30;3.55;;;2.55;;
1593;SDS011;790;47.000;16.084;2022-09-13T15:34:10;2.20;;;2.00;;
1593;SDS011;790;47.000;16.084;2022-09-13T15:40:40;2.45;;;2.35;;
1593;SDS011;790;47.000;16.084;2022-09-13T15:47:07;2.33;;;2.13;;
1593;SDS011;790;47.000;16.084;2022-09-13T15:53:30;2.42;;;2.10;;
1593;SDS011;790;47.000;16.084;2022-09-13T15:59:52;2.25;;;2.00;;
1593;SDS011;790;47.000;16.084;2022-09-13T16:06:17;3.38;;;2.10;;
1593;SDS011;790;47.000;16.084;2022-09-13T16:12:38;2.65;;;2.45;;
1593;SDS011;790;47.000;16.084;2022-09-13T16:18:59;3.10;;;2.20;;
1593;SDS011;790;47.000;16.084;2022-09-13T16:29:55;2.72;;;2.63;;
1593;SDS011;790;47.000;16.084;2022-09-13T16:36:03;2.60;;;2.40;;
1593;SDS011;790;47.000;16.084;2022-09-13T16:42:11;2.70;;;2.50;;
1593;SDS011;790;47.000;16.084;2022-09-13T16:48:20;3.88;;;2.40;;
1593;SDS011;790;47.000;16.084;2022-09-13T16:54:28;2.97;;;2.70;;
1593;SDS011;790;47.000;16.084;2022-09-13T17:00:36;5.38;;;2.88;;
1593;SDS011;790;47.000;16.084;2022-09-13T17:06:45;3.00;;;2.45;;
1593;SDS011;790;47.000;16.084;2022-09-13T17:12:53;3.33;;;2.85;;
1593;SDS011;790;47.000;16.084;2022-09-13T17:19:04;5.03;;;2.90;;
1593;SDS011;790;47.000;16.084;2022-09-13T17:29:31;3.88;;;3.25;;
1593;SDS011;790;47.000;16.084;2022-09-13T17:35:56;3.30;;;2.80;;
1593;SDS011;790;47.000;16.084;2022-09-13T17:42:18;3.35;;;3.00;;
1593;SDS011;790;47.000;16.084;2022-09-13T17:48:42;3.35;;;3.08;;
1593;SDS011;790;47.000;16.084;2022-09-13T17:55:04;3.05;;;2.90;;
1593;SDS011;790;47.000;16.084;2022-09-13T18:01:25;3.08;;;2.88;;
1593;SDS011;790;47.000;16.084;2022-09-13T18:07:48;14.00;;;3.45;;
1593;SDS011;790;47.000;16.084;2022-09-13T18:14:10;2.92;;;2.72;;
1593;SDS011;790;47.000;16.084;2022-09-13T18:20:33;4.20;;;3.10;;
1593;SDS011;790;47.000;16.084;2022-09-13T18:31:19;3.80;;;3.28;;
1593;SDS011;790;47.000;16.084;2022-09-13T18:37:29;5.28;;;3.13;;
1593;SDS011;790;47.000;16.084;2022-09-13T18:43:38;3.70;;;3.40;;
1593;SDS011;790;47.000;16.084;2022-09-13T18:49:48;3.35;;;3.05;;
1593;SDS011;790;47.000;16.084;2022-09-13T18:55:58;3.60;;;3.22;;
1593;SDS011;790;47.000;16.084;2022-09-13T19:02:07;3.30;;;3.10;;
1593;SDS011;790;47.000;16.084;2022-09-13T19:08:17;4.05;;;3.50;;
1593;SDS011;790;47.000;16.084;2022-09-13T19:14:25;4.03;;;3.00;;
1593;SDS011;790;47.000;16.084;2022-09-13T19:20:34;3.70;;;3.35;;
1593;SDS011;790;47.000;16.084;2022-09-13T19:31:02;3.58;;;3.38;;
1593;SDS011;790;47.000;16.084;2022-09-13T19:37:24;3.38;;;3.08;;
1593;SDS011;790;47.000;16.084;2022-09-13T19:43:45;3.83;;;3.35;;
1593;SDS011;790;47.000;16.084;2022-09-13T19:50:10;3.50;;;3.20;;
1593;SDS011;790;47.000;16.084;2022-09-13T19:56:32;3.38;;;3.08;;
1593;SDS011;790;47.000;16.084;2022-09-13T20:02:54;3.10;;;3.00;;
1593;SDS011;790;47.000;16.084;2022-09-13T20:09:17;4.32;;;3.38;;
1593;SDS011;790;47.000;16.084;2022-09-13T20:15:39;3.40;;;3.08;;
1593;SDS011;790;47.000;16.084;2022-09-13T20:22:00;3.88;;;3.30;;
1593;SDS011;790;47.000;16.084;2022-09-13T20:32:47;3.42;;;3.22;;
1593;SDS011;790;47.000;16.084;2022-09-13T20:38:56;3.70;;;3.50;;
1593;SDS011;790;47.000;16.084;2022-09-13T20:45:04;4.00;;;3.17;;
1593;SDS011;790;47.000;16.084;2022-09-13T20:51:15;3.60;;;3.40;;
1593;SDS011;790;47.000;16.084;2022-09-13T20:57:24;4.05;;;3.55;;
1593;SDS011;790;47.000;16.084;2022-09-13T21:03:33;3.58;;;3.38;;
1593;SDS011;790;47.000;16.084;2022-09-13T21:09:43;3.40;;;3.20;;
1593;SDS011;790;47.000;16.084;2022-09-13T21:15:52;3.22;;;3.03;;
1593;SDS011;790;47.000;16.084;2022-09-13T21:22:00;3.60;;;3.40;;
1593;SDS011;790;47.000;16.084;2022-09-13T21:32:24;4.82;;;3.65;;
1593;SDS011;790;47.000;16.084;2022-09-13T21:38:45;5.00;;;3.83;;
1593;SDS011;790;47.000;16.084;2022-09-13T21:45:08;3.92;;;3.45;;
1593;SDS011;790;47.000;16.084;2022-09-13T21:51:31;3.63;;;3.42;;
1593;SDS011;790;47.000;16.084;2022-09-13T21:57:53;5.80;;;3.25;;
1593;SDS011;790;47.000;16.084;2022-09-13T22:04:15;4.00;;;3.67;;
1593;SDS011;790;47.000;16.084;2022-09-13T22:10:40;4.15;;;3.70;;
1593;SDS011;790;47.000;16.084;2022-09-13T22:17:01;4.05;;;3.83;;
1593;SDS011;790;47.000;16.084;2022-09-13T22:23:22;4.40;;;4.07;;
1593;SDS011;790;47.000;16.084;2022-09-13T22:34:11;4.75;;;3.88;;
1593;SDS011;790;47.000;16.084;2022-09-13T22:40:19;4.95;;;4.55;;
1593;SDS011;790;47.000;16.084;2022-09-13T22:46:28;5.93;;;4.50;;
1593;SDS011;790;47.000;16.084;2022-09-13T22:52:39;5.00;;;4.43;;
1593;SDS011;790;47.000;16.084;2022-09-13T22:58:46;4.18;;;3.88;;
1593;SDS011;790;47.000;16.084;2022-09-13T23:04:58;4.60;;;4.25;;
1593;SDS011;790;47.000;16.084;2022-09-13T23:11:11;4.10;;;3.90;;
1593;SDS011;790;47.000;16.084;2022-09-13T23:17:20;4.88;;;4.50;;
1593;SDS011;790;47.000;16.084;2022-09-13T23:23:28;4.88;;;4.45;;
1593;SDS011;790;47.000;16.084;2022-09-13T23:33:52;4.43;;;3.97;;
1593;SDS011;790;47.000;16.084;2022-09-13T23:40:16;6.07;;;4.30;;
1593;SDS011;790;47.000;16.084;2022-09-13T23:46:37;5.15;;;4.75;;
1593;SDS011;790;47.000;16.084;2022-09-13T23:53:00;4.20;;;3.90;;
1593;SDS011;790;47.000;16.084;2022-09-13T23:59:21;5.20;;;4.70;;
